createdAt,value
2023-04-16T00:02:29.072Z,8.62
2023-04-16T00:05:45.069Z,8.67
2023-04-16T00:08:54.008Z,8.60
2023-04-16T00:11:56.467Z,8.53
2023-04-16T00:14:58.944Z,8.70
2023-04-16T00:18:15.078Z,8.66
2023-04-16T00:21:24.016Z,8.69
2023-04-16T00:24:26.343Z,8.67
2023-04-16T00:27:35.529Z,8.63
2023-04-16T00:30:44.040Z,8.57
2023-04-16T00:33:46.261Z,8.65
2023-04-16T00:37:02.098Z,8.66
2023-04-16T00:40:11.500Z,8.60
2023-04-16T00:43:36.022Z,8.41
2023-04-16T00:46:46.113Z,8.50
2023-04-16T00:50:02.064Z,8.48
2023-04-16T00:53:11.320Z,8.49
2023-04-16T00:56:28.041Z,8.53
2023-04-16T00:59:37.142Z,8.49
2023-04-16T01:02:39.742Z,8.53
2023-04-16T01:05:51.955Z,8.55
2023-04-16T01:09:01.108Z,8.63
2023-04-16T01:12:03.611Z,8.70
2023-04-16T01:15:09.803Z,8.67
2023-04-16T01:18:16.354Z,8.72
2023-04-16T01:21:32.020Z,8.65
2023-04-16T01:24:40.978Z,8.65
2023-04-16T01:27:50.220Z,8.77
2023-04-16T01:30:52.522Z,8.79
2023-04-16T01:34:17.012Z,8.76
2023-04-16T01:37:26.024Z,8.75
2023-04-16T01:40:43.019Z,8.75
2023-04-16T01:43:49.451Z,8.79
2023-04-16T01:46:51.773Z,8.75
2023-04-16T01:49:53.977Z,8.81
2023-04-16T01:53:24.045Z,8.66
2023-04-16T01:56:26.645Z,8.31
2023-04-16T01:59:42.017Z,8.21
2023-04-16T02:02:52.373Z,8.35
2023-04-16T02:06:15.021Z,8.46
2023-04-16T02:09:24.541Z,8.42
2023-04-16T02:12:27.164Z,8.42
2023-04-16T02:15:29.333Z,8.52
2023-04-16T02:18:31.599Z,8.50
2023-04-16T02:21:36.242Z,8.53
2023-04-16T02:24:52.062Z,8.59
2023-04-16T02:27:58.243Z,8.62
2023-04-16T02:31:09.685Z,8.57
2023-04-16T02:34:23.475Z,8.60
2023-04-16T02:37:32.032Z,8.65
2023-04-16T02:40:40.601Z,8.63
2023-04-16T02:44:02.016Z,8.63
2023-04-16T02:47:11.153Z,8.60
2023-04-16T02:50:27.005Z,8.62
2023-04-16T02:53:36.165Z,8.62
2023-04-16T02:56:52.045Z,8.45
2023-04-16T03:00:01.379Z,8.55
2023-04-16T03:03:04.060Z,8.46
2023-04-16T03:06:13.144Z,8.55
2023-04-16T03:09:22.156Z,8.48
2023-04-16T03:12:31.089Z,8.45
2023-04-16T03:15:47.747Z,8.44
2023-04-16T03:18:56.115Z,8.34
2023-04-16T03:22:05.075Z,8.38
2023-04-16T03:25:08.279Z,8.42
2023-04-16T03:28:10.539Z,8.34
2023-04-16T03:31:20.285Z,8.36
2023-04-16T03:34:29.758Z,8.44
2023-04-16T03:37:39.140Z,8.39
2023-04-16T03:40:47.972Z,8.32
2023-04-16T03:43:57.132Z,8.38
2023-04-16T03:47:08.099Z,8.45
2023-04-16T03:50:17.129Z,8.38
2023-04-16T03:53:29.109Z,8.35
2023-04-16T03:56:38.081Z,8.39
2023-04-16T03:59:47.762Z,8.36
2023-04-16T04:02:58.272Z,8.25
2023-04-16T04:06:08.627Z,8.26
2023-04-16T04:09:17.251Z,8.31
2023-04-16T04:12:26.003Z,8.24
2023-04-16T04:15:28.389Z,8.32
2023-04-16T04:18:44.551Z,8.38
2023-04-16T04:22:02.077Z,8.39
2023-04-16T04:25:12.780Z,8.39
2023-04-16T04:28:29.039Z,8.53
2023-04-16T04:31:38.269Z,8.56
2023-04-16T04:34:40.578Z,8.52
2023-04-16T04:37:51.677Z,8.62
2023-04-16T04:41:00.252Z,8.60
2023-04-16T04:44:13.364Z,8.70
2023-04-16T04:47:27.010Z,8.79
2023-04-16T04:50:29.329Z,8.83
2023-04-16T04:53:31.579Z,8.99
2023-04-16T04:56:40.381Z,9.01
2023-04-16T04:59:50.136Z,8.97
2023-04-16T05:03:03.469Z,9.13
2023-04-16T05:06:12.203Z,9.37
2023-04-16T05:09:14.456Z,9.41
2023-04-16T05:12:16.661Z,9.57
2023-04-16T05:15:18.921Z,9.59
2023-04-16T05:18:23.132Z,9.67
2023-04-16T05:21:26.487Z,9.85
2023-04-16T05:24:42.016Z,9.75
2023-04-16T05:28:04.163Z,9.92
2023-04-16T05:31:08.054Z,10.08
2023-04-16T05:34:16.415Z,10.05
2023-04-16T05:37:33.008Z,10.03
2023-04-16T05:40:41.951Z,10.12
2023-04-16T05:43:44.206Z,10.08
2023-04-16T05:46:53.416Z,10.19
2023-04-16T05:50:01.961Z,10.16
2023-04-16T05:53:07.107Z,10.05
2023-04-16T05:56:09.343Z,10.06
2023-04-16T05:59:18.084Z,9.90
2023-04-16T06:02:27.166Z,9.83
2023-04-16T06:05:29.791Z,9.89
2023-04-16T06:08:44.982Z,9.75
2023-04-16T06:12:07.001Z,9.85
2023-04-16T06:15:16.032Z,9.83
2023-04-16T06:18:28.996Z,10.05
2023-04-16T06:21:31.852Z,10.06
2023-04-16T06:24:34.300Z,10.29
2023-04-16T06:27:36.534Z,10.50
2023-04-16T06:30:43.379Z,10.60
2023-04-16T06:33:46.744Z,10.67
2023-04-16T06:36:48.997Z,10.61
2023-04-16T06:39:51.172Z,10.54
2023-04-16T06:42:54.152Z,10.43
2023-04-16T06:45:56.374Z,10.23
2023-04-16T06:49:12.173Z,10.13
2023-04-16T06:52:19.028Z,10.21
2023-04-16T06:55:34.029Z,10.41
2023-04-16T06:58:54.007Z,10.49
2023-04-16T07:01:56.812Z,10.59
2023-04-16T07:04:59.111Z,10.64
2023-04-16T07:08:01.408Z,10.87
2023-04-16T07:11:04.589Z,10.87
2023-04-16T07:14:06.947Z,10.92
2023-04-16T07:17:09.165Z,11.11
2023-04-16T07:20:25.012Z,11.31
2023-04-16T07:23:38.976Z,11.58
2023-04-16T07:26:41.554Z,11.80
2023-04-16T07:29:50.915Z,11.77
2023-04-16T07:32:56.855Z,11.95
2023-04-16T07:35:59.167Z,12.14
2023-04-16T07:39:01.415Z,12.32
2023-04-16T07:42:10.198Z,12.54
2023-04-16T07:45:19.415Z,12.62
2023-04-16T07:48:22.095Z,12.68
2023-04-16T07:51:24.428Z,12.78
2023-04-16T07:54:28.842Z,12.69
2023-04-16T07:57:34.470Z,12.86
2023-04-16T08:00:43.147Z,13.23
2023-04-16T08:03:51.410Z,13.43
2023-04-16T08:06:58.116Z,13.44
2023-04-16T08:10:09.005Z,13.64
2023-04-16T08:13:11.313Z,14.25
2023-04-16T08:16:13.574Z,14.55
2023-04-16T08:19:15.811Z,14.90
2023-04-16T08:22:19.188Z,15.34
2023-04-16T08:25:28.070Z,15.31
2023-04-16T08:28:32.945Z,15.58
2023-04-16T08:31:35.249Z,15.83
2023-04-16T08:34:39.450Z,15.44
2023-04-16T08:37:48.131Z,15.61
2023-04-16T08:40:59.087Z,15.70
2023-04-16T08:44:13.017Z,16.12
2023-04-16T08:47:25.005Z,16.36
2023-04-16T08:50:28.376Z,16.38
2023-04-16T08:53:50.728Z,16.41
2023-04-16T08:56:53.345Z,16.38
2023-04-16T08:59:56.456Z,16.27
2023-04-16T09:02:59.300Z,16.29
2023-04-16T09:06:03.511Z,16.53
2023-04-16T09:09:10.262Z,16.74
2023-04-16T09:12:12.978Z,16.92
2023-04-16T09:15:15.232Z,17.32
2023-04-16T09:18:17.485Z,17.71
2023-04-16T09:21:21.557Z,17.84
2023-04-16T09:24:25.299Z,18.41
2023-04-16T09:27:28.327Z,18.75
2023-04-16T09:30:30.729Z,19.50
2023-04-16T09:33:34.933Z,19.27
2023-04-16T09:36:37.356Z,19.65
2023-04-16T09:39:43.069Z,18.90
2023-04-16T09:42:47.923Z,17.69
2023-04-16T09:45:54.388Z,17.60
2023-04-16T09:48:56.802Z,17.98
2023-04-16T09:52:00.011Z,18.41
2023-04-16T09:55:02.220Z,18.37
2023-04-16T09:58:09.157Z,18.44
2023-04-16T10:01:13.412Z,19.60
2023-04-16T10:04:18.121Z,20.57
2023-04-16T10:07:21.088Z,19.86
2023-04-16T10:10:27.078Z,20.05
2023-04-16T10:13:31.160Z,19.89
2023-04-16T10:16:41.650Z,19.99
2023-04-16T10:19:51.009Z,19.95
2023-04-16T10:22:54.514Z,21.08
2023-04-16T10:26:00.066Z,22.20
2023-04-16T10:29:02.767Z,22.81
2023-04-16T10:32:07.009Z,23.62
2023-04-16T10:35:09.472Z,23.22
2023-04-16T10:38:28.335Z,24.04
2023-04-16T10:41:33.513Z,24.54
2023-04-16T10:44:36.266Z,24.67
2023-04-16T10:47:40.785Z,23.01
2023-04-16T10:50:43.166Z,24.57
2023-04-16T10:53:45.498Z,23.92
2023-04-16T10:56:48.067Z,22.50
2023-04-16T10:59:50.345Z,22.24
2023-04-16T11:02:56.688Z,21.51
2023-04-16T11:06:17.425Z,21.00
2023-04-16T11:09:47.666Z,18.40
2023-04-16T11:12:56.692Z,17.65
2023-04-16T11:16:06.236Z,17.60
2023-04-16T11:19:15.345Z,16.85
2023-04-16T11:22:18.630Z,16.53
2023-04-16T11:25:22.755Z,16.33
2023-04-16T11:28:36.041Z,16.48
2023-04-16T11:31:38.905Z,16.72
2023-04-16T11:34:46.215Z,16.67
2023-04-16T11:37:48.825Z,16.58
2023-04-16T11:40:54.075Z,16.43
2023-04-16T11:43:56.390Z,16.31
2023-04-16T11:46:58.701Z,16.10
2023-04-16T11:50:27.718Z,16.16
2023-04-16T11:53:31.385Z,15.90
2023-04-16T11:56:36.298Z,16.17
2023-04-16T12:00:02.121Z,16.17
2023-04-16T12:03:14.805Z,16.06
2023-04-16T12:06:17.185Z,15.97
2023-04-16T12:09:25.611Z,16.09
2023-04-16T12:12:31.152Z,16.09
2023-04-16T12:15:49.991Z,16.10
2023-04-16T12:19:04.077Z,16.13
2023-04-16T12:22:06.632Z,15.93
2023-04-16T12:25:15.115Z,16.10
2023-04-16T12:28:28.114Z,16.12
2023-04-16T12:31:39.434Z,16.19
2023-04-16T12:34:51.569Z,16.48
2023-04-16T12:37:53.789Z,16.70
2023-04-16T12:40:57.153Z,16.63
2023-04-16T12:44:19.087Z,16.75
2023-04-16T12:47:21.379Z,16.77
2023-04-16T12:50:23.642Z,16.94
2023-04-16T12:53:26.160Z,16.78
2023-04-16T12:56:30.469Z,16.89
2023-04-16T12:59:32.656Z,16.98
2023-04-16T13:02:35.300Z,16.95
2023-04-16T13:05:37.610Z,17.19
2023-04-16T13:08:40.761Z,17.45
2023-04-16T13:11:42.956Z,17.67
2023-04-16T13:14:57.056Z,17.70
2023-04-16T13:17:59.364Z,17.87
2023-04-16T13:21:01.832Z,17.87
2023-04-16T13:24:04.187Z,18.25
2023-04-16T13:27:10.195Z,18.10
2023-04-16T13:30:19.465Z,18.20
2023-04-16T13:33:39.055Z,18.17
2023-04-16T13:36:42.994Z,18.11
2023-04-16T13:40:00.026Z,17.93
2023-04-16T13:43:08.965Z,18.08
2023-04-16T13:46:11.998Z,18.21
2023-04-16T13:49:20.396Z,18.21
2023-04-16T13:52:23.448Z,18.15
2023-04-16T13:55:25.903Z,18.42
2023-04-16T13:58:28.247Z,18.52
2023-04-16T14:01:32.332Z,18.41
2023-04-16T14:04:36.535Z,18.10
2023-04-16T14:07:46.325Z,18.18
2023-04-16T14:10:49.465Z,18.21
2023-04-16T14:13:51.695Z,18.17
2023-04-16T14:17:03.525Z,18.30
2023-04-16T14:20:07.032Z,18.12
2023-04-16T14:23:09.304Z,18.11
2023-04-16T14:26:11.578Z,18.08
2023-04-16T14:29:19.078Z,18.01
2023-04-16T14:32:21.380Z,18.08
2023-04-16T14:35:24.534Z,18.14
2023-04-16T14:38:26.862Z,18.12
2023-04-16T14:41:34.064Z,17.98
2023-04-16T14:44:36.330Z,17.98
2023-04-16T14:47:45.791Z,17.94
2023-04-16T14:50:48.372Z,18.15
2023-04-16T14:53:50.760Z,18.14
2023-04-16T14:56:52.946Z,18.07
2023-04-16T14:59:57.949Z,17.87
2023-04-16T15:03:00.390Z,17.94
2023-04-16T15:06:08.711Z,17.83
2023-04-16T15:09:17.374Z,17.66
2023-04-16T15:12:24.934Z,17.45
2023-04-16T15:15:33.381Z,17.33
2023-04-16T15:18:36.150Z,17.14
2023-04-16T15:21:38.416Z,17.09
2023-04-16T15:24:46.227Z,16.88
2023-04-16T15:27:52.397Z,16.99
2023-04-16T15:30:54.999Z,17.07
2023-04-16T15:34:00.897Z,17.01
2023-04-16T15:37:14.964Z,16.95
2023-04-16T15:40:18.931Z,17.02
2023-04-16T15:43:21.398Z,17.05
2023-04-16T15:46:23.632Z,16.91
2023-04-16T15:49:27.111Z,17.01
2023-04-16T15:52:29.395Z,17.16
2023-04-16T15:55:31.724Z,17.16
2023-04-16T15:58:33.949Z,16.99
2023-04-16T16:01:37.872Z,16.82
2023-04-16T16:04:45.831Z,16.79
2023-04-16T16:07:48.406Z,16.41
2023-04-16T16:10:50.678Z,16.47
2023-04-16T16:13:53.903Z,16.34
2023-04-16T16:17:03.091Z,16.26
2023-04-16T16:20:12.915Z,16.09
2023-04-16T16:23:15.154Z,16.03
2023-04-16T16:26:17.678Z,16.06
2023-04-16T16:29:19.951Z,15.72
2023-04-16T16:32:22.327Z,15.68
2023-04-16T16:35:26.129Z,15.68
2023-04-16T16:38:28.379Z,15.61
2023-04-16T16:41:31.562Z,15.35
2023-04-16T16:44:33.953Z,15.11
2023-04-16T16:47:36.181Z,14.88
2023-04-16T16:50:39.281Z,14.83
2023-04-16T16:53:41.481Z,14.94
2023-04-16T16:56:44.454Z,14.93
2023-04-16T16:59:51.060Z,14.76
2023-04-16T17:02:53.490Z,14.45
2023-04-16T17:06:02.447Z,14.47
2023-04-16T17:09:04.912Z,14.19
2023-04-16T17:12:07.794Z,14.29
2023-04-16T17:15:11.037Z,14.42
2023-04-16T17:18:13.588Z,14.21
2023-04-16T17:21:16.798Z,14.00
2023-04-16T17:24:19.858Z,14.06
2023-04-16T17:27:23.019Z,13.98
2023-04-16T17:30:28.536Z,13.92
2023-04-16T17:33:31.027Z,13.86
2023-04-16T17:36:34.770Z,13.81
2023-04-16T17:39:38.527Z,13.78
2023-04-16T17:42:40.951Z,13.81
2023-04-16T17:45:45.201Z,13.84
2023-04-16T17:48:54.414Z,13.82
2023-04-16T17:51:58.498Z,13.65
2023-04-16T17:55:01.514Z,13.74
2023-04-16T17:58:04.872Z,13.68
2023-04-16T18:01:13.770Z,13.68
2023-04-16T18:04:19.208Z,13.64
2023-04-16T18:07:21.813Z,13.46
2023-04-16T18:10:31.731Z,13.39
2023-04-16T18:13:40.391Z,13.39
2023-04-16T18:16:53.977Z,13.27
2023-04-16T18:19:56.550Z,13.32
2023-04-16T18:22:58.818Z,13.09
2023-04-16T18:26:03.014Z,13.02
2023-04-16T18:29:06.080Z,12.92
2023-04-16T18:32:11.809Z,12.92
2023-04-16T18:35:14.369Z,12.88
2023-04-16T18:39:02.186Z,12.82
2023-04-16T18:42:05.277Z,12.85
2023-04-16T18:45:12.471Z,12.83
2023-04-16T18:48:22.058Z,12.85
2023-04-16T18:51:24.977Z,12.78
2023-04-16T18:54:27.670Z,12.99
2023-04-16T18:57:29.874Z,12.88
2023-04-16T19:00:33.832Z,12.89
2023-04-16T19:03:38.279Z,12.68
2023-04-16T19:06:42.296Z,12.69
2023-04-16T19:09:44.558Z,12.65
2023-04-16T19:12:46.832Z,12.49
2023-04-16T19:15:49.116Z,12.58
2023-04-16T19:18:52.303Z,12.51
2023-04-16T19:21:54.554Z,12.48
2023-04-16T19:24:56.884Z,12.40
2023-04-16T19:28:03.742Z,12.55
2023-04-16T19:31:06.553Z,12.61
2023-04-16T19:34:10.733Z,12.71
2023-04-16T19:37:13.181Z,12.58
2023-04-16T19:40:21.086Z,12.62
2023-04-16T19:43:23.965Z,12.66
2023-04-16T19:46:28.004Z,12.69
2023-04-16T19:49:33.745Z,12.81
2023-04-16T19:52:38.971Z,12.88
2023-04-16T19:55:42.029Z,12.95
2023-04-16T19:58:46.054Z,12.97
2023-04-16T20:01:48.340Z,12.95
2023-04-16T20:04:50.860Z,12.89
2023-04-16T20:07:54.459Z,12.97
2023-04-16T20:10:56.723Z,13.02
2023-04-16T20:14:07.413Z,12.97
2023-04-16T20:17:17.902Z,13.00
2023-04-16T20:20:25.595Z,12.91
2023-04-16T20:23:27.802Z,12.86
2023-04-16T20:26:34.171Z,12.92
2023-04-16T20:29:36.442Z,12.83
2023-04-16T20:32:38.701Z,12.88
2023-04-16T20:35:47.134Z,12.81
2023-04-16T20:39:06.026Z,12.83
2023-04-16T20:42:14.088Z,12.82
2023-04-16T20:45:28.959Z,12.86
2023-04-16T20:48:46.008Z,12.81
2023-04-16T20:51:54.995Z,12.82
2023-04-16T20:55:04.096Z,12.78
2023-04-16T20:58:08.195Z,12.81
2023-04-16T21:01:21.179Z,12.65
2023-04-16T21:04:23.767Z,12.65
2023-04-16T21:07:32.358Z,12.65
2023-04-16T21:10:34.733Z,12.62
2023-04-16T21:13:36.947Z,12.69
2023-04-16T21:16:39.227Z,12.65
2023-04-16T21:19:48.323Z,12.64
2023-04-16T21:22:57.016Z,12.66
2023-04-16T21:25:59.179Z,12.56
2023-04-16T21:29:01.477Z,12.52
2023-04-16T21:32:05.859Z,12.56
2023-04-16T21:35:09.495Z,12.56
2023-04-16T21:38:11.669Z,12.55
2023-04-16T21:41:14.499Z,12.52
2023-04-16T21:44:16.701Z,12.42
2023-04-16T21:47:19.123Z,12.28
2023-04-16T21:50:21.327Z,12.25
2023-04-16T21:53:28.184Z,12.18
2023-04-16T21:56:30.390Z,12.20
2023-04-16T21:59:33.536Z,12.13
2023-04-16T22:02:36.541Z,12.13
2023-04-16T22:05:38.914Z,12.07
2023-04-16T22:08:41.146Z,12.05
2023-04-16T22:11:46.541Z,12.13
2023-04-16T22:14:59.507Z,12.18
2023-04-16T22:18:04.536Z,12.20
2023-04-16T22:21:06.774Z,12.17
2023-04-16T22:24:11.035Z,12.17
2023-04-16T22:27:13.211Z,12.14
2023-04-16T22:30:15.632Z,12.08
2023-04-16T22:33:17.932Z,12.04
2023-04-16T22:36:20.981Z,12.10
2023-04-16T22:39:28.613Z,11.95
2023-04-16T22:42:31.487Z,12.07
2023-04-16T22:45:34.619Z,12.01
2023-04-16T22:48:50.922Z,12.07
2023-04-16T22:51:53.099Z,12.04
2023-04-16T22:54:55.514Z,12.03
2023-04-16T22:57:59.467Z,11.91
2023-04-16T23:01:02.305Z,11.86
2023-04-16T23:04:10.107Z,11.86
2023-04-16T23:07:12.439Z,11.69
2023-04-16T23:10:15.696Z,11.67
2023-04-16T23:13:18.024Z,11.77
2023-04-16T23:16:25.155Z,11.73
2023-04-16T23:19:27.496Z,11.76
2023-04-16T23:22:30.532Z,11.69
2023-04-16T23:25:32.882Z,11.79
2023-04-16T23:28:36.055Z,11.77
2023-04-16T23:31:52.094Z,11.80
2023-04-16T23:34:54.456Z,11.77
2023-04-16T23:38:04.415Z,11.76
2023-04-16T23:41:06.976Z,11.86
2023-04-16T23:44:09.287Z,11.90
2023-04-16T23:47:11.485Z,11.97
2023-04-16T23:50:13.750Z,11.89
2023-04-16T23:53:16.764Z,11.87
2023-04-16T23:56:19.029Z,11.97
2023-04-16T23:59:26.006Z,11.95
